createdAt,value
2023-02-02T00:01:09.197Z,6.25
2023-02-02T00:06:12.021Z,6.09
2023-02-02T00:11:14.803Z,5.92
2023-02-02T00:16:29.146Z,5.87
2023-02-02T00:21:31.657Z,5.79
2023-02-02T00:26:34.452Z,5.76
2023-02-02T00:31:37.402Z,5.84
2023-02-02T00:36:40.418Z,5.82
2023-02-02T00:41:42.835Z,5.87
2023-02-02T00:46:45.451Z,5.87
2023-02-02T00:51:47.957Z,5.86
2023-02-02T00:56:50.486Z,5.89
2023-02-02T01:01:53.109Z,5.88
2023-02-02T01:06:55.505Z,5.90
2023-02-02T01:11:58.240Z,5.96
2023-02-02T01:17:01.133Z,6.01
2023-02-02T01:22:03.779Z,6.03
2023-02-02T01:27:06.509Z,5.97
2023-02-02T01:32:09.011Z,5.89
2023-02-02T01:37:11.938Z,5.95
2023-02-02T01:42:22.226Z,5.79
2023-02-02T01:47:30.461Z,5.78
2023-02-02T01:52:34.648Z,5.76
2023-02-02T01:57:45.815Z,5.84
2023-02-02T02:02:49.699Z,5.80
2023-02-02T02:08:10.519Z,5.82
2023-02-02T02:13:14.414Z,5.78
2023-02-02T02:18:40.780Z,5.77
2023-02-02T02:24:26.937Z,5.74
2023-02-02T02:29:41.161Z,5.79
2023-02-02T02:35:11.787Z,5.82
2023-02-02T02:40:30.370Z,5.81
2023-02-02T02:45:33.541Z,5.85
2023-02-02T02:50:36.170Z,5.86
2023-02-02T02:56:12.195Z,5.83
2023-02-02T03:01:59.765Z,5.86
2023-02-02T03:07:24.138Z,5.92
2023-02-02T03:12:26.621Z,6.03
2023-02-02T03:17:29.073Z,6.04
2023-02-02T03:22:31.466Z,6.08
2023-02-02T03:27:34.029Z,6.00
2023-02-02T03:32:37.259Z,6.02
2023-02-02T03:37:40.243Z,5.95
2023-02-02T03:42:42.729Z,5.90
2023-02-02T03:47:45.249Z,5.91
2023-02-02T03:52:47.697Z,5.90
2023-02-02T03:57:50.213Z,6.08
2023-02-02T04:02:54.092Z,6.14
2023-02-02T04:07:56.597Z,6.02
2023-02-02T04:12:59.014Z,6.00
2023-02-02T04:18:01.386Z,6.20
2023-02-02T04:23:03.861Z,6.28
2023-02-02T04:28:06.301Z,6.23
2023-02-02T04:33:09.197Z,6.35
2023-02-02T04:38:11.752Z,6.55
2023-02-02T04:43:15.352Z,6.51
2023-02-02T04:48:17.776Z,6.43
2023-02-02T04:53:20.468Z,6.55
2023-02-02T04:58:22.993Z,6.65
2023-02-02T05:03:25.417Z,6.65
2023-02-02T05:08:27.838Z,6.54
2023-02-02T05:13:30.291Z,6.67
2023-02-02T05:18:33.186Z,6.79
2023-02-02T05:23:35.864Z,6.70
2023-02-02T05:28:38.581Z,6.92
2023-02-02T05:33:40.987Z,6.95
2023-02-02T05:38:43.360Z,6.92
2023-02-02T05:43:45.822Z,6.76
2023-02-02T05:48:48.273Z,6.62
2023-02-02T05:53:50.757Z,6.57
2023-02-02T05:58:53.184Z,6.77
2023-02-02T06:03:55.921Z,6.82
2023-02-02T06:08:58.348Z,6.69
2023-02-02T06:14:00.847Z,6.70
2023-02-02T06:19:04.064Z,6.68
2023-02-02T06:24:07.392Z,6.76
2023-02-02T06:29:13.558Z,6.76
2023-02-02T06:34:16.003Z,6.75
2023-02-02T06:39:18.542Z,6.84
2023-02-02T06:44:21.134Z,6.81
2023-02-02T06:49:23.687Z,6.82
2023-02-02T06:54:26.266Z,6.71
2023-02-02T06:59:28.661Z,6.83
2023-02-02T07:04:31.182Z,6.73
2023-02-02T07:09:34.539Z,6.74
2023-02-02T07:14:37.118Z,6.72
2023-02-02T07:19:39.712Z,6.71
2023-02-02T07:24:42.251Z,6.94
2023-02-02T07:29:45.595Z,6.92
2023-02-02T07:34:48.004Z,6.98
2023-02-02T07:39:50.414Z,6.84
2023-02-02T07:44:52.836Z,6.95
2023-02-02T07:49:55.279Z,6.97
2023-02-02T07:55:13.575Z,7.03
2023-02-02T08:00:20.607Z,6.96
2023-02-02T08:05:23.570Z,7.14
2023-02-02T08:10:26.146Z,7.12
2023-02-02T08:15:28.767Z,7.13
2023-02-02T08:20:31.349Z,7.25
2023-02-02T08:25:33.747Z,7.45
2023-02-02T08:30:36.687Z,7.41
2023-02-02T08:35:47.087Z,7.37
2023-02-02T08:40:49.613Z,7.52
2023-02-02T08:46:03.247Z,7.87
2023-02-02T08:51:10.040Z,7.64
2023-02-02T08:56:18.522Z,7.76
2023-02-02T09:01:23.944Z,7.92
2023-02-02T09:06:36.047Z,8.00
2023-02-02T09:11:39.461Z,7.88
2023-02-02T09:16:42.574Z,7.56
2023-02-02T09:21:45.120Z,7.35
2023-02-02T09:26:47.843Z,7.62
2023-02-02T09:31:50.589Z,7.34
2023-02-02T09:36:54.402Z,7.66
2023-02-02T09:42:11.727Z,7.89
2023-02-02T09:47:20.066Z,7.42
2023-02-02T09:52:37.795Z,7.46
2023-02-02T09:58:07.110Z,7.54
2023-02-02T10:03:24.749Z,7.57
2023-02-02T10:08:52.283Z,7.72
2023-02-02T10:14:02.602Z,7.80
2023-02-02T10:19:11.027Z,7.59
2023-02-02T10:24:25.354Z,7.95
2023-02-02T10:29:59.856Z,8.11
2023-02-02T10:35:26.707Z,8.02
2023-02-02T10:40:40.616Z,7.78
2023-02-02T10:45:45.018Z,7.85
2023-02-02T10:50:54.603Z,7.54
2023-02-02T10:56:11.726Z,7.39
2023-02-02T11:01:18.103Z,7.66
2023-02-02T11:06:43.719Z,7.77
2023-02-02T11:11:50.884Z,7.72
2023-02-02T11:17:05.598Z,7.84
2023-02-02T11:22:24.158Z,7.71
2023-02-02T11:27:41.438Z,7.79
2023-02-02T11:32:47.940Z,7.77
2023-02-02T11:37:58.332Z,7.90
2023-02-02T11:43:05.654Z,7.98
2023-02-02T11:48:19.166Z,7.82
2023-02-02T11:53:29.790Z,8.07
2023-02-02T11:58:53.578Z,8.21
2023-02-02T12:04:01.928Z,8.12
2023-02-02T12:09:17.095Z,7.91
2023-02-02T12:14:31.975Z,7.91
2023-02-02T12:20:03.570Z,7.66
2023-02-02T12:25:15.181Z,7.69
2023-02-02T12:30:37.558Z,7.63
2023-02-02T12:36:12.015Z,7.91
2023-02-02T12:41:42.577Z,7.59
2023-02-02T12:46:53.456Z,7.52
2023-02-02T12:52:21.519Z,7.54
2023-02-02T12:58:01.449Z,7.25
2023-02-02T13:03:31.369Z,7.20
2023-02-02T13:08:58.749Z,7.20
2023-02-02T13:14:06.901Z,7.03
2023-02-02T13:19:18.399Z,6.98
2023-02-02T13:24:28.521Z,6.94
2023-02-02T13:29:56.502Z,7.18
2023-02-02T13:35:17.525Z,7.28
2023-02-02T13:40:42.584Z,7.60
2023-02-02T13:46:09.341Z,7.74
2023-02-02T13:51:53.765Z,7.55
2023-02-02T13:57:16.707Z,7.40
2023-02-02T14:02:33.699Z,7.60
2023-02-02T14:07:44.079Z,7.81
2023-02-02T14:12:47.047Z,7.63
2023-02-02T14:17:53.344Z,7.68
2023-02-02T14:22:55.859Z,7.71
2023-02-02T14:28:00.626Z,7.69
2023-02-02T14:33:21.792Z,7.64
2023-02-02T14:38:24.280Z,7.57
2023-02-02T14:43:48.014Z,7.67
2023-02-02T14:49:13.538Z,7.73
2023-02-02T14:54:28.084Z,7.72
2023-02-02T14:59:40.492Z,7.59
2023-02-02T15:04:43.619Z,7.67
2023-02-02T15:09:46.287Z,7.57
2023-02-02T15:14:51.754Z,7.54
2023-02-02T15:20:09.011Z,7.56
2023-02-02T15:25:54.897Z,7.40
2023-02-02T15:31:28.294Z,7.61
2023-02-02T15:36:39.325Z,7.54
2023-02-02T15:41:46.675Z,7.56
2023-02-02T15:46:49.670Z,7.62
2023-02-02T15:51:55.775Z,7.43
2023-02-02T15:57:00.850Z,7.49
2023-02-02T16:02:19.546Z,7.55
2023-02-02T16:07:31.503Z,7.49
2023-02-02T16:12:35.679Z,7.45
2023-02-02T16:17:38.363Z,7.57
2023-02-02T16:22:42.333Z,7.78
2023-02-02T16:27:47.869Z,7.69
2023-02-02T16:32:50.337Z,7.68
2023-02-02T16:37:52.762Z,7.77
2023-02-02T16:43:27.475Z,7.69
2023-02-02T16:48:37.344Z,7.71
2023-02-02T16:53:40.236Z,7.72
2023-02-02T16:58:45.640Z,7.65
2023-02-02T17:03:54.037Z,7.93
2023-02-02T17:08:56.603Z,7.88
2023-02-02T17:14:17.948Z,7.81
2023-02-02T17:19:20.590Z,7.94
2023-02-02T17:24:23.225Z,8.25
2023-02-02T17:29:25.864Z,8.40
2023-02-02T17:34:30.933Z,7.96
2023-02-02T17:39:33.395Z,7.95
2023-02-02T17:44:36.036Z,8.13
2023-02-02T17:49:39.194Z,7.79
2023-02-02T17:54:41.833Z,7.73
2023-02-02T17:59:44.272Z,7.68
2023-02-02T18:04:46.731Z,7.58
2023-02-02T18:09:49.168Z,7.72
2023-02-02T18:14:51.609Z,7.58
2023-02-02T18:19:55.891Z,7.37
2023-02-02T18:25:01.054Z,7.35
2023-02-02T18:30:04.052Z,7.58
2023-02-02T18:35:08.593Z,7.61
2023-02-02T18:40:11.862Z,7.63
2023-02-02T18:45:14.571Z,7.52
2023-02-02T18:50:17.189Z,7.70
2023-02-02T18:55:19.942Z,7.69
2023-02-02T19:00:22.594Z,7.62
2023-02-02T19:05:43.660Z,7.49
2023-02-02T19:10:46.521Z,7.47
2023-02-02T19:15:50.832Z,7.50
2023-02-02T19:20:53.718Z,7.62
2023-02-02T19:25:56.782Z,7.24
2023-02-02T19:31:01.860Z,7.32
2023-02-02T19:36:08.289Z,7.46
2023-02-02T19:41:22.747Z,7.50
2023-02-02T19:46:29.606Z,7.52
2023-02-02T19:51:53.682Z,7.71
2023-02-02T19:57:36.286Z,7.53
2023-02-02T20:03:07.630Z,7.30
2023-02-02T20:08:25.078Z,7.03
2023-02-02T20:13:45.583Z,7.15
2023-02-02T20:18:56.489Z,7.26
2023-02-02T20:23:59.099Z,7.31
2023-02-02T20:29:17.876Z,7.19
2023-02-02T20:34:40.037Z,7.34
2023-02-02T20:39:45.653Z,7.09
2023-02-02T20:44:48.462Z,6.98
2023-02-02T20:49:51.221Z,6.90
2023-02-02T20:54:53.774Z,6.83
2023-02-02T20:59:57.831Z,6.95
2023-02-02T21:05:01.424Z,6.73
2023-02-02T21:10:05.145Z,6.64
2023-02-02T21:15:08.220Z,6.76
2023-02-02T21:20:12.944Z,6.52
2023-02-02T21:25:15.525Z,6.52
2023-02-02T21:30:18.497Z,6.54
2023-02-02T21:35:21.165Z,6.65
2023-02-02T21:40:30.487Z,6.74
2023-02-02T21:45:37.818Z,6.80
2023-02-02T21:50:41.917Z,6.76
2023-02-02T21:55:46.278Z,6.53
2023-02-02T22:00:50.236Z,6.70
2023-02-02T22:05:53.703Z,6.83
2023-02-02T22:10:56.135Z,6.94
2023-02-02T22:15:58.582Z,6.71
2023-02-02T22:21:01.044Z,6.55
2023-02-02T22:26:03.828Z,6.52
2023-02-02T22:31:06.783Z,6.37
2023-02-02T22:36:09.599Z,6.17
2023-02-02T22:41:12.340Z,6.11
2023-02-02T22:46:14.785Z,6.13
2023-02-02T22:51:17.214Z,6.07
2023-02-02T22:56:19.830Z,6.07
2023-02-02T23:01:22.249Z,6.05
2023-02-02T23:06:24.918Z,6.03
2023-02-02T23:11:27.365Z,6.01
2023-02-02T23:16:29.959Z,5.95
2023-02-02T23:21:32.416Z,6.01
2023-02-02T23:26:34.884Z,6.02
2023-02-02T23:31:37.545Z,6.07
2023-02-02T23:36:40.268Z,6.06
2023-02-02T23:41:42.778Z,6.04
2023-02-02T23:46:45.363Z,6.04
2023-02-02T23:51:48.198Z,5.99
2023-02-02T23:56:51.490Z,5.95
